createdAt,value
2022-07-27T00:01:33.312Z,24.24
2022-07-27T00:04:01.480Z,24.20
2022-07-27T00:06:29.671Z,24.22
2022-07-27T00:08:57.718Z,24.29
2022-07-27T00:11:27.266Z,24.29
2022-07-27T00:13:55.421Z,24.20
2022-07-27T00:16:23.682Z,24.17
2022-07-27T00:18:51.871Z,24.18
2022-07-27T00:21:20.053Z,24.19
2022-07-27T00:23:48.854Z,24.20
2022-07-27T00:26:17.036Z,24.19
2022-07-27T00:28:46.600Z,24.11
2022-07-27T00:31:14.840Z,24.03
2022-07-27T00:33:43.094Z,24.18
2022-07-27T00:36:11.440Z,24.14
2022-07-27T00:38:40.542Z,24.09
2022-07-27T00:41:08.835Z,24.02
2022-07-27T00:43:54.833Z,23.92
2022-07-27T00:46:23.566Z,23.81
2022-07-27T00:48:52.184Z,23.72
2022-07-27T00:51:23.352Z,23.74
2022-07-27T00:53:53.789Z,23.68
2022-07-27T00:56:23.029Z,23.57
2022-07-27T00:58:54.595Z,23.43
2022-07-27T01:01:23.060Z,23.36
2022-07-27T01:03:52.646Z,23.27
2022-07-27T01:06:24.884Z,23.32
2022-07-27T01:09:17.207Z,23.38
2022-07-27T01:11:45.554Z,23.28
2022-07-27T01:14:17.277Z,23.21
2022-07-27T01:16:45.885Z,23.30
2022-07-27T01:19:16.228Z,23.22
2022-07-27T01:21:46.499Z,23.26
2022-07-27T01:24:15.212Z,23.28
2022-07-27T01:26:43.415Z,23.30
2022-07-27T01:29:12.441Z,23.27
2022-07-27T01:31:40.822Z,23.22
2022-07-27T01:34:09.241Z,23.21
2022-07-27T01:36:38.460Z,23.06
2022-07-27T01:39:08.279Z,23.03
2022-07-27T01:41:36.439Z,22.96
2022-07-27T01:44:04.617Z,22.96
2022-07-27T01:46:32.898Z,22.91
2022-07-27T01:49:01.191Z,22.86
2022-07-27T01:51:29.765Z,22.91
2022-07-27T01:53:58.048Z,22.94
2022-07-27T01:56:27.603Z,22.88
2022-07-27T01:58:56.326Z,22.79
2022-07-27T02:01:24.544Z,22.72
2022-07-27T02:03:52.854Z,22.71
2022-07-27T02:06:21.070Z,22.66
2022-07-27T02:08:49.427Z,22.57
2022-07-27T02:11:35.039Z,22.51
2022-07-27T02:14:04.678Z,22.49
2022-07-27T02:16:32.960Z,22.62
2022-07-27T02:19:01.231Z,22.65
2022-07-27T02:21:33.542Z,22.70
2022-07-27T02:24:01.824Z,22.67
2022-07-27T02:26:29.939Z,22.75
2022-07-27T02:28:58.066Z,22.67
2022-07-27T02:31:28.402Z,22.66
2022-07-27T02:34:01.867Z,22.65
2022-07-27T02:36:30.332Z,22.60
2022-07-27T02:38:59.146Z,22.52
2022-07-27T02:41:27.629Z,22.46
2022-07-27T02:43:55.813Z,22.46
2022-07-27T02:46:24.091Z,22.44
2022-07-27T02:48:54.722Z,22.52
2022-07-27T02:51:22.896Z,22.51
2022-07-27T02:53:51.425Z,22.45
2022-07-27T02:56:19.641Z,22.44
2022-07-27T02:58:55.326Z,22.41
2022-07-27T03:01:25.195Z,22.30
2022-07-27T03:03:54.841Z,22.20
2022-07-27T03:06:23.015Z,22.26
2022-07-27T03:08:51.528Z,22.29
2022-07-27T03:11:19.653Z,22.26
2022-07-27T03:13:47.731Z,22.32
2022-07-27T03:16:16.002Z,22.33
2022-07-27T03:18:44.237Z,22.36
2022-07-27T03:21:14.515Z,22.40
2022-07-27T03:23:42.681Z,22.52
2022-07-27T03:26:10.862Z,22.43
2022-07-27T03:28:38.928Z,22.42
2022-07-27T03:31:07.203Z,22.43
2022-07-27T03:33:35.947Z,22.56
2022-07-27T03:36:04.169Z,22.50
2022-07-27T03:38:33.781Z,22.26
2022-07-27T03:41:02.515Z,22.52
2022-07-27T03:43:30.619Z,22.61
2022-07-27T03:45:58.969Z,22.65
2022-07-27T03:48:27.333Z,22.64
2022-07-27T03:50:55.557Z,22.62
2022-07-27T03:53:23.834Z,22.66
2022-07-27T03:55:53.495Z,22.66
2022-07-27T03:58:23.471Z,22.71
2022-07-27T04:00:52.058Z,22.74
2022-07-27T04:03:20.270Z,22.81
2022-07-27T04:05:48.572Z,22.70
2022-07-27T04:08:17.583Z,22.75
2022-07-27T04:10:45.959Z,22.55
2022-07-27T04:13:16.106Z,22.79
2022-07-27T04:15:45.996Z,22.91
2022-07-27T04:18:14.277Z,23.07
2022-07-27T04:20:42.447Z,23.15
2022-07-27T04:23:10.632Z,23.27
2022-07-27T04:25:38.683Z,23.38
2022-07-27T04:28:07.330Z,23.54
2022-07-27T04:30:37.629Z,23.57
2022-07-27T04:33:05.981Z,23.57
2022-07-27T04:35:34.038Z,23.75
2022-07-27T04:38:02.145Z,23.82
2022-07-27T04:40:33.963Z,23.93
2022-07-27T04:43:02.982Z,24.03
2022-07-27T04:45:31.536Z,24.04
2022-07-27T04:48:01.163Z,24.09
2022-07-27T04:50:29.347Z,24.08
2022-07-27T04:52:57.484Z,24.19
2022-07-27T04:55:25.868Z,24.22
2022-07-27T04:57:53.986Z,24.25
2022-07-27T05:00:22.135Z,24.35
2022-07-27T05:02:50.278Z,24.42
2022-07-27T05:05:19.912Z,24.45
2022-07-27T05:07:47.992Z,24.52
2022-07-27T05:10:20.065Z,24.63
2022-07-27T05:12:50.298Z,24.79
2022-07-27T05:15:19.073Z,24.81
2022-07-27T05:17:47.355Z,25.01
2022-07-27T05:20:17.606Z,24.95
2022-07-27T05:22:47.306Z,25.14
2022-07-27T05:25:16.454Z,25.44
2022-07-27T05:27:53.730Z,25.71
2022-07-27T05:30:24.037Z,25.94
2022-07-27T05:32:52.137Z,26.02
2022-07-27T05:35:20.421Z,26.17
2022-07-27T05:37:51.321Z,26.26
2022-07-27T05:40:19.505Z,26.37
2022-07-27T05:42:48.103Z,26.37
2022-07-27T05:45:16.654Z,26.37
2022-07-27T05:47:44.841Z,26.34
2022-07-27T05:50:13.574Z,26.35
2022-07-27T05:52:41.680Z,26.31
2022-07-27T05:55:12.240Z,26.42
2022-07-27T05:57:42.271Z,26.54
2022-07-27T06:00:12.826Z,26.69
2022-07-27T06:02:41.651Z,26.78
2022-07-27T06:05:15.491Z,26.86
2022-07-27T06:08:03.717Z,26.96
2022-07-27T06:10:35.996Z,26.73
2022-07-27T06:13:06.309Z,26.56
2022-07-27T06:15:34.807Z,26.63
2022-07-27T06:18:03.898Z,26.74
2022-07-27T06:20:32.557Z,26.76
2022-07-27T06:23:07.913Z,26.77
2022-07-27T06:25:38.253Z,26.73
2022-07-27T06:28:08.116Z,26.85
2022-07-27T06:30:36.757Z,27.01
2022-07-27T06:33:06.067Z,27.10
2022-07-27T06:35:37.789Z,27.19
2022-07-27T06:38:07.051Z,27.13
2022-07-27T06:40:35.915Z,27.15
2022-07-27T06:43:05.552Z,27.24
2022-07-27T06:45:33.802Z,27.31
2022-07-27T06:48:01.944Z,27.33
2022-07-27T06:50:30.522Z,27.30
2022-07-27T06:52:58.791Z,27.33
2022-07-27T06:55:27.064Z,27.40
2022-07-27T06:57:55.353Z,27.31
2022-07-27T07:00:25.602Z,27.52
2022-07-27T07:02:55.765Z,27.63
2022-07-27T07:05:24.326Z,27.66
2022-07-27T07:07:52.737Z,27.75
2022-07-27T07:10:23.749Z,27.87
2022-07-27T07:12:56.087Z,27.91
2022-07-27T07:15:27.342Z,27.99
2022-07-27T07:17:55.829Z,28.15
2022-07-27T07:20:24.788Z,28.21
2022-07-27T07:22:53.210Z,28.42
2022-07-27T07:25:21.726Z,28.45
2022-07-27T07:27:50.635Z,28.54
2022-07-27T07:30:19.065Z,28.71
2022-07-27T07:32:48.848Z,28.89
2022-07-27T07:35:18.290Z,29.00
2022-07-27T07:37:49.760Z,29.06
2022-07-27T07:43:07.801Z,29.35
2022-07-27T07:45:39.058Z,29.38
2022-07-27T07:48:22.097Z,29.51
2022-07-27T07:50:53.117Z,29.60
2022-07-27T07:53:23.120Z,29.70
2022-07-27T07:55:52.070Z,29.76
2022-07-27T07:58:20.348Z,29.72
2022-07-27T08:00:48.986Z,29.73
2022-07-27T08:03:17.328Z,29.85
2022-07-27T08:05:47.010Z,29.97
2022-07-27T08:08:15.455Z,30.08
2022-07-27T08:10:43.812Z,30.14
2022-07-27T08:13:12.003Z,30.14
2022-07-27T08:15:40.157Z,30.26
2022-07-27T08:18:09.680Z,30.40
2022-07-27T08:20:38.218Z,30.51
2022-07-27T08:23:07.779Z,30.67
2022-07-27T08:25:36.918Z,30.76
2022-07-27T08:28:07.482Z,30.74
2022-07-27T08:30:35.919Z,30.80
2022-07-27T08:33:06.467Z,30.88
2022-07-27T08:35:35.814Z,30.91
2022-07-27T08:38:07.836Z,30.95
2022-07-27T08:40:41.857Z,31.02
2022-07-27T08:43:12.209Z,31.14
2022-07-27T08:45:44.736Z,31.31
2022-07-27T08:48:15.765Z,31.47
2022-07-27T08:50:44.391Z,31.56
2022-07-27T08:53:17.842Z,31.68
2022-07-27T08:55:48.710Z,31.84
2022-07-27T08:58:17.846Z,31.75
2022-07-27T09:00:48.254Z,32.04
2022-07-27T09:03:20.054Z,32.10
2022-07-27T09:05:51.181Z,32.05
2022-07-27T09:08:24.462Z,32.25
2022-07-27T09:10:55.779Z,32.44
2022-07-27T09:13:26.812Z,32.59
2022-07-27T09:18:45.819Z,32.70
2022-07-27T09:21:16.957Z,32.67
2022-07-27T09:23:48.532Z,32.84
2022-07-27T09:26:31.850Z,32.94
2022-07-27T09:29:03.230Z,32.93
2022-07-27T09:31:32.479Z,32.84
2022-07-27T09:34:02.913Z,32.89
2022-07-27T09:36:31.915Z,33.02
2022-07-27T09:39:12.893Z,33.11
2022-07-27T09:41:45.869Z,33.36
2022-07-27T09:44:32.369Z,33.56
2022-07-27T09:47:01.300Z,33.61
2022-07-27T09:49:31.981Z,33.81
2022-07-27T09:52:02.302Z,33.93
2022-07-27T09:54:44.855Z,33.88
2022-07-27T09:57:14.523Z,33.97
2022-07-27T09:59:42.897Z,34.10
2022-07-27T10:02:14.646Z,34.19
2022-07-27T10:04:43.270Z,34.10
2022-07-27T10:07:13.859Z,34.19
2022-07-27T10:09:43.343Z,34.05
2022-07-27T10:12:11.850Z,34.14
2022-07-27T10:14:41.457Z,34.41
2022-07-27T10:17:12.974Z,34.53
2022-07-27T10:19:48.099Z,34.50
2022-07-27T10:22:16.391Z,34.45
2022-07-27T10:24:47.678Z,34.52
2022-07-27T10:27:21.705Z,34.48
2022-07-27T10:29:52.577Z,34.39
2022-07-27T10:32:27.927Z,34.22
2022-07-27T10:34:56.228Z,34.27
2022-07-27T10:37:28.719Z,34.40
2022-07-27T10:40:12.815Z,34.58
2022-07-27T10:42:41.482Z,34.87
2022-07-27T10:45:13.260Z,35.03
2022-07-27T10:47:45.136Z,35.06
2022-07-27T10:50:48.779Z,35.17
2022-07-27T10:53:17.596Z,35.36
2022-07-27T10:55:49.683Z,35.48
2022-07-27T10:58:51.699Z,35.31
2022-07-27T11:01:23.898Z,35.21
2022-07-27T11:03:56.306Z,35.08
2022-07-27T11:06:48.126Z,35.02
2022-07-27T11:10:02.612Z,34.87
2022-07-27T11:12:14.161Z,35.07
2022-07-27T11:14:47.558Z,35.20
2022-07-27T11:17:49.495Z,35.33
2022-07-27T11:20:07.217Z,35.21
2022-07-27T11:25:26.728Z,35.64
2022-07-27T11:27:55.077Z,35.85
2022-07-27T11:30:25.159Z,36.09
2022-07-27T11:32:55.624Z,36.19
2022-07-27T11:35:24.247Z,36.23
2022-07-27T11:38:03.688Z,36.26
2022-07-27T11:43:38.318Z,36.60
2022-07-27T11:46:15.827Z,36.54
2022-07-27T11:49:08.658Z,36.50
2022-07-27T11:51:40.145Z,36.59
2022-07-27T11:54:09.836Z,36.74
2022-07-27T11:56:40.039Z,36.77
2022-07-27T11:59:15.416Z,36.81
2022-07-27T12:01:51.090Z,36.85
2022-07-27T12:04:29.101Z,36.95
2022-07-27T12:07:10.762Z,37.08
2022-07-27T12:09:40.740Z,37.21
2022-07-27T12:12:15.132Z,37.23
2022-07-27T12:14:46.388Z,37.02
2022-07-27T12:17:18.516Z,36.61
2022-07-27T12:19:59.546Z,36.46
2022-07-27T12:22:34.727Z,36.57
2022-07-27T12:25:10.035Z,36.68
2022-07-27T12:27:54.538Z,36.84
2022-07-27T12:30:31.388Z,36.90
2022-07-27T12:33:00.957Z,37.05
2022-07-27T12:35:37.384Z,37.09
2022-07-27T12:38:09.971Z,36.86
2022-07-27T12:40:46.948Z,36.83
2022-07-27T12:43:18.710Z,36.82
2022-07-27T12:45:48.780Z,36.84
2022-07-27T12:48:18.832Z,36.82
2022-07-27T12:50:50.190Z,36.88
2022-07-27T12:53:18.827Z,36.91
2022-07-27T12:55:47.692Z,36.99
2022-07-27T12:58:17.417Z,36.90
2022-07-27T13:00:45.795Z,36.36
2022-07-27T13:03:15.357Z,36.21
2022-07-27T13:05:44.002Z,36.17
2022-07-27T13:08:16.484Z,36.28
2022-07-27T13:10:46.129Z,36.29
2022-07-27T13:13:15.214Z,36.53
2022-07-27T13:15:43.337Z,36.62
2022-07-27T13:18:11.646Z,36.68
2022-07-27T13:20:40.007Z,36.76
2022-07-27T13:23:09.049Z,37.03
2022-07-27T13:25:43.243Z,37.15
2022-07-27T13:28:11.928Z,37.21
2022-07-27T13:30:40.526Z,37.27
2022-07-27T13:33:08.690Z,37.24
2022-07-27T13:35:37.344Z,37.25
2022-07-27T13:38:05.602Z,37.20
2022-07-27T13:40:33.790Z,37.27
2022-07-27T13:43:03.393Z,37.35
2022-07-27T13:45:43.140Z,37.00
2022-07-27T13:48:13.254Z,37.05
2022-07-27T13:50:42.303Z,37.06
2022-07-27T13:53:14.940Z,36.97
2022-07-27T13:55:44.265Z,36.34
2022-07-27T13:58:14.048Z,36.14
2022-07-27T14:00:42.491Z,36.21
2022-07-27T14:03:11.349Z,36.27
2022-07-27T14:05:41.902Z,36.31
2022-07-27T14:08:17.773Z,36.14
2022-07-27T14:10:46.637Z,36.38
2022-07-27T14:13:17.464Z,36.38
2022-07-27T14:15:54.473Z,36.30
2022-07-27T14:18:28.590Z,36.44
2022-07-27T14:20:58.559Z,36.66
2022-07-27T14:23:31.201Z,36.79
2022-07-27T14:26:02.247Z,36.89
2022-07-27T14:28:36.425Z,36.70
2022-07-27T14:31:07.111Z,36.53
2022-07-27T14:33:37.000Z,36.48
2022-07-27T14:36:06.553Z,36.57
2022-07-27T14:38:34.821Z,36.50
2022-07-27T14:41:03.400Z,36.51
2022-07-27T14:43:33.164Z,36.15
2022-07-27T14:46:02.295Z,36.09
2022-07-27T14:49:03.346Z,36.16
2022-07-27T14:51:18.777Z,36.33
2022-07-27T14:53:47.355Z,36.09
2022-07-27T14:56:18.273Z,36.09
2022-07-27T14:58:47.839Z,36.21
2022-07-27T15:01:17.211Z,36.33
2022-07-27T15:03:46.260Z,36.13
2022-07-27T15:06:14.516Z,36.35
2022-07-27T15:08:42.669Z,36.49
2022-07-27T15:11:11.109Z,36.55
2022-07-27T15:13:39.910Z,36.55
2022-07-27T15:16:09.638Z,36.60
2022-07-27T15:18:39.073Z,36.69
2022-07-27T15:21:13.483Z,36.62
2022-07-27T15:23:43.407Z,36.69
2022-07-27T15:26:12.627Z,36.61
2022-07-27T15:28:41.358Z,36.61
2022-07-27T15:31:13.370Z,36.60
2022-07-27T15:33:42.042Z,36.60
2022-07-27T15:36:31.848Z,36.58
2022-07-27T15:38:59.954Z,36.20
2022-07-27T15:41:28.022Z,35.94
2022-07-27T15:43:57.605Z,35.91
2022-07-27T15:46:28.155Z,36.07
2022-07-27T15:48:56.737Z,35.97
2022-07-27T15:51:25.063Z,35.99
2022-07-27T15:53:53.785Z,35.99
2022-07-27T15:56:21.996Z,35.96
2022-07-27T15:58:50.551Z,36.05
2022-07-27T16:01:20.974Z,35.97
2022-07-27T16:03:52.095Z,35.92
2022-07-27T16:06:20.655Z,35.94
2022-07-27T16:08:49.286Z,36.02
2022-07-27T16:11:18.242Z,35.92
2022-07-27T16:13:48.525Z,35.90
2022-07-27T16:16:26.474Z,35.85
2022-07-27T16:18:57.957Z,35.83
2022-07-27T16:21:26.829Z,35.80
2022-07-27T16:23:57.149Z,35.82
2022-07-27T16:26:26.010Z,35.49
2022-07-27T16:28:57.131Z,35.57
2022-07-27T16:31:25.299Z,35.64
2022-07-27T16:33:55.009Z,35.64
2022-07-27T16:36:26.446Z,35.68
2022-07-27T16:38:54.986Z,35.51
2022-07-27T16:41:23.809Z,35.54
2022-07-27T16:43:52.089Z,35.45
2022-07-27T16:46:20.880Z,35.37
2022-07-27T16:48:49.222Z,35.18
2022-07-27T16:51:17.802Z,35.10
2022-07-27T16:53:49.099Z,35.12
2022-07-27T16:56:17.660Z,35.10
2022-07-27T16:58:45.850Z,35.00
2022-07-27T17:01:22.061Z,34.94
2022-07-27T17:03:54.924Z,34.82
2022-07-27T17:06:23.431Z,34.73
2022-07-27T17:08:53.141Z,34.62
2022-07-27T17:11:22.485Z,34.48
2022-07-27T17:13:59.414Z,34.38
2022-07-27T17:16:28.441Z,34.26
2022-07-27T17:18:57.009Z,34.15
2022-07-27T17:21:25.882Z,34.08
2022-07-27T17:23:55.409Z,33.99
2022-07-27T17:26:24.785Z,33.89
2022-07-27T17:28:54.005Z,33.85
2022-07-27T17:31:23.102Z,33.80
2022-07-27T17:33:51.969Z,33.79
2022-07-27T17:36:20.703Z,33.76
2022-07-27T17:38:50.499Z,33.70
2022-07-27T17:41:24.682Z,33.63
2022-07-27T17:43:55.144Z,33.53
2022-07-27T17:46:24.747Z,33.45
2022-07-27T17:48:54.523Z,33.36
2022-07-27T17:51:25.498Z,33.26
2022-07-27T17:53:53.830Z,33.17
2022-07-27T17:56:23.444Z,33.01
2022-07-27T17:58:51.627Z,32.90
2022-07-27T18:01:46.970Z,32.75
2022-07-27T18:04:08.157Z,32.63
2022-07-27T18:06:36.464Z,32.57
2022-07-27T18:09:06.982Z,32.48
2022-07-27T18:11:37.056Z,32.43
2022-07-27T18:14:05.293Z,32.42
2022-07-27T18:16:39.749Z,32.54
2022-07-27T18:19:08.555Z,32.57
2022-07-27T18:21:37.724Z,32.48
2022-07-27T18:24:06.315Z,32.47
2022-07-27T18:26:34.710Z,32.28
2022-07-27T18:29:06.522Z,32.10
2022-07-27T18:31:35.816Z,31.92
2022-07-27T18:34:09.124Z,31.83
2022-07-27T18:36:38.978Z,31.70
2022-07-27T18:39:07.169Z,31.59
2022-07-27T18:41:35.942Z,31.45
2022-07-27T18:44:06.145Z,31.38
2022-07-27T18:46:34.580Z,31.20
2022-07-27T18:49:02.802Z,31.12
2022-07-27T18:51:31.949Z,31.02
2022-07-27T18:54:00.568Z,30.95
2022-07-27T18:56:28.727Z,30.68
2022-07-27T18:58:57.098Z,30.36
2022-07-27T19:01:27.550Z,30.18
2022-07-27T19:03:55.787Z,30.01
2022-07-27T19:06:24.076Z,29.86
2022-07-27T19:08:53.585Z,29.61
2022-07-27T19:11:21.696Z,29.40
2022-07-27T19:13:49.921Z,29.25
2022-07-27T19:16:18.118Z,29.09
2022-07-27T19:18:47.913Z,28.85
2022-07-27T19:21:16.808Z,28.84
2022-07-27T19:23:45.908Z,28.85
2022-07-27T19:26:14.595Z,28.82
2022-07-27T19:28:44.417Z,28.71
2022-07-27T19:31:23.071Z,28.75
2022-07-27T19:33:53.647Z,28.64
2022-07-27T19:36:23.401Z,28.61
2022-07-27T19:38:52.222Z,28.61
2022-07-27T19:41:20.575Z,28.60
2022-07-27T19:43:48.843Z,28.61
2022-07-27T19:46:18.469Z,28.60
2022-07-27T19:48:46.760Z,28.67
2022-07-27T19:51:16.813Z,28.65
2022-07-27T19:53:45.051Z,28.62
2022-07-27T19:56:13.200Z,28.64
2022-07-27T19:58:41.726Z,28.69
2022-07-27T20:01:11.498Z,28.69
2022-07-27T20:03:47.403Z,28.79
2022-07-27T20:06:24.070Z,28.77
2022-07-27T20:08:55.896Z,28.72
2022-07-27T20:11:24.222Z,28.69
2022-07-27T20:13:52.461Z,28.63
2022-07-27T20:16:20.793Z,28.50
2022-07-27T20:18:49.542Z,28.46
2022-07-27T20:21:23.226Z,28.44
2022-07-27T20:23:54.639Z,28.43
2022-07-27T20:26:22.799Z,28.36
2022-07-27T20:28:51.041Z,28.29
2022-07-27T20:31:20.337Z,28.29
2022-07-27T20:33:48.667Z,28.30
2022-07-27T20:36:16.951Z,28.32
2022-07-27T20:38:45.224Z,28.41
2022-07-27T20:41:14.992Z,28.44
2022-07-27T20:43:43.355Z,28.35
2022-07-27T20:46:11.860Z,28.34
2022-07-27T20:48:42.027Z,28.29
2022-07-27T20:51:10.350Z,28.24
2022-07-27T20:53:39.714Z,28.13
2022-07-27T20:56:07.986Z,28.02
2022-07-27T20:58:37.541Z,27.92
2022-07-27T21:01:06.133Z,27.86
2022-07-27T21:03:34.860Z,27.79
2022-07-27T21:06:03.690Z,27.75
2022-07-27T21:08:32.094Z,27.91
2022-07-27T21:11:00.560Z,27.97
2022-07-27T21:13:28.791Z,27.96
2022-07-27T21:15:58.405Z,27.87
2022-07-27T21:18:26.881Z,27.84
2022-07-27T21:20:56.265Z,27.84
2022-07-27T21:23:41.872Z,27.78
2022-07-27T21:26:09.979Z,27.79
2022-07-27T21:28:38.681Z,27.80
2022-07-27T21:31:18.689Z,27.81
2022-07-27T21:33:49.174Z,27.84
2022-07-27T21:36:17.688Z,27.85
2022-07-27T21:38:45.963Z,27.86
2022-07-27T21:41:16.064Z,27.77
2022-07-27T21:43:44.633Z,27.68
2022-07-27T21:46:14.702Z,27.70
2022-07-27T21:48:43.037Z,27.62
2022-07-27T21:51:11.231Z,27.53
2022-07-27T21:53:39.390Z,27.54
2022-07-27T21:56:07.638Z,27.46
2022-07-27T21:58:35.826Z,27.43
2022-07-27T22:01:04.176Z,27.34
2022-07-27T22:03:34.051Z,27.30
2022-07-27T22:06:02.252Z,27.21
2022-07-27T22:08:30.592Z,27.10
2022-07-27T22:10:59.439Z,27.03
2022-07-27T22:13:28.135Z,26.95
2022-07-27T22:15:56.392Z,26.78
2022-07-27T22:18:24.744Z,26.69
2022-07-27T22:20:54.425Z,26.58
2022-07-27T22:23:22.869Z,26.51
2022-07-27T22:25:51.056Z,26.40
2022-07-27T22:28:19.240Z,26.37
2022-07-27T22:31:11.873Z,26.35
2022-07-27T22:33:37.427Z,26.43
2022-07-27T22:36:09.340Z,26.41
2022-07-27T22:38:37.705Z,26.35
2022-07-27T22:41:06.810Z,26.35
2022-07-27T22:43:35.284Z,26.31
2022-07-27T22:46:04.727Z,26.20
2022-07-27T22:48:33.084Z,26.32
2022-07-27T22:51:01.436Z,26.33
2022-07-27T22:53:31.267Z,26.32
2022-07-27T22:55:59.344Z,26.23
2022-07-27T22:58:28.153Z,26.27
2022-07-27T23:00:59.679Z,26.17
2022-07-27T23:03:28.285Z,26.24
2022-07-27T23:05:57.439Z,26.18
2022-07-27T23:08:25.735Z,26.10
2022-07-27T23:10:55.298Z,26.13
2022-07-27T23:13:23.923Z,26.14
2022-07-27T23:15:52.342Z,26.12
2022-07-27T23:18:22.954Z,26.07
2022-07-27T23:20:51.436Z,26.03
2022-07-27T23:23:19.868Z,26.00
2022-07-27T23:25:51.314Z,25.97
2022-07-27T23:28:21.337Z,25.87
2022-07-27T23:30:52.103Z,25.88
2022-07-27T23:33:21.184Z,25.87
2022-07-27T23:35:49.336Z,25.78
2022-07-27T23:38:18.174Z,25.65
2022-07-27T23:40:47.542Z,25.67
2022-07-27T23:43:15.969Z,25.68
2022-07-27T23:45:45.633Z,25.65
2022-07-27T23:48:13.901Z,25.68
2022-07-27T23:50:42.012Z,25.72
2022-07-27T23:53:10.353Z,25.69
2022-07-27T23:55:38.753Z,25.60
2022-07-27T23:58:07.320Z,25.50
